sensor_id;sensor_type;location;lat;lon;timestamp;pressure;altitude;pressure_sealevel;temperature;humidity
67842;BME280;54642;59.126;37.876;2023-07-31T00:01:24;98985.06;;;18.72;69.38
67842;BME280;54642;59.126;37.876;2023-07-31T00:03:50;98950.13;;;18.55;69.88
67842;BME280;54642;59.126;37.876;2023-07-31T00:06:16;98967.88;;;18.66;69.53
67842;BME280;54642;59.126;37.876;2023-07-31T00:08:41;98976.28;;;18.73;69.80
67842;BME280;54642;59.126;37.876;2023-07-31T00:11:07;98966.53;;;18.75;69.51
67842;BME280;54642;59.126;37.876;2023-07-31T00:13:33;98947.16;;;18.61;69.55
67842;BME280;54642;59.126;37.876;2023-07-31T00:15:59;98986.34;;;18.80;69.53
67842;BME280;54642;59.126;37.876;2023-07-31T00:18:25;98986.28;;;18.82;69.46
67842;BME280;54642;59.126;37.876;2023-07-31T00:20:51;98994.16;;;18.82;69.40
67842;BME280;54642;59.126;37.876;2023-07-31T00:23:16;98991.25;;;18.86;69.56
67842;BME280;54642;59.126;37.876;2023-07-31T00:25:42;98983.78;;;18.79;69.75
67842;BME280;54642;59.126;37.876;2023-07-31T00:28:08;98997.38;;;18.87;69.44
67842;BME280;54642;59.126;37.876;2023-07-31T00:30:34;98995.75;;;18.84;69.50
67842;BME280;54642;59.126;37.876;2023-07-31T00:33:00;98979.81;;;18.72;69.83
67842;BME280;54642;59.126;37.876;2023-07-31T00:35:26;98987.69;;;18.72;69.50
67842;BME280;54642;59.126;37.876;2023-07-31T00:37:52;99007.66;;;18.74;70.23
67842;BME280;54642;59.126;37.876;2023-07-31T00:40:17;99005.91;;;18.59;70.21
67842;BME280;54642;59.126;37.876;2023-07-31T00:42:43;99015.38;;;18.61;70.12
67842;BME280;54642;59.126;37.876;2023-07-31T00:45:09;98990.16;;;18.43;70.42
67842;BME280;54642;59.126;37.876;2023-07-31T00:47:35;99007.41;;;18.47;70.79
67842;BME280;54642;59.126;37.876;2023-07-31T00:50:01;99019.53;;;18.50;71.18
67842;BME280;54642;59.126;37.876;2023-07-31T00:52:27;99009.34;;;18.43;71.12
67842;BME280;54642;59.126;37.876;2023-07-31T00:54:55;99016.44;;;18.41;70.72
67842;BME280;54642;59.126;37.876;2023-07-31T00:57:21;99034.16;;;18.54;70.99
67842;BME280;54642;59.126;37.876;2023-07-31T00:59:47;99041.00;;;18.56;71.20
67842;BME280;54642;59.126;37.876;2023-07-31T01:02:14;99023.31;;;18.44;71.02
67842;BME280;54642;59.126;37.876;2023-07-31T01:04:42;99037.81;;;18.51;70.99
67842;BME280;54642;59.126;37.876;2023-07-31T01:07:31;99037.13;;;18.47;70.79
67842;BME280;54642;59.126;37.876;2023-07-31T01:10:07;99037.19;;;18.46;71.21
67842;BME280;54642;59.126;37.876;2023-07-31T01:12:38;99018.72;;;18.32;71.28
67842;BME280;54642;59.126;37.876;2023-07-31T01:15:05;99025.50;;;18.36;71.52
67842;BME280;54642;59.126;37.876;2023-07-31T01:17:32;99038.28;;;18.42;71.05
67842;BME280;54642;59.126;37.876;2023-07-31T01:20:02;99024.75;;;18.34;71.36
67842;BME280;54642;59.126;37.876;2023-07-31T01:22:52;99046.81;;;18.45;71.34
67842;BME280;54642;59.126;37.876;2023-07-31T01:28:14;99018.81;;;18.30;71.18
67842;BME280;54642;59.126;37.876;2023-07-31T01:30:48;99017.09;;;18.29;71.45
67842;BME280;54642;59.126;37.876;2023-07-31T01:33:18;99028.44;;;18.29;71.43
67842;BME280;54642;59.126;37.876;2023-07-31T01:35:46;99038.78;;;18.33;71.10
67842;BME280;54642;59.126;37.876;2023-07-31T01:38:14;99045.72;;;18.34;71.39
67842;BME280;54642;59.126;37.876;2023-07-31T01:40:43;99030.47;;;18.24;71.43
67842;BME280;54642;59.126;37.876;2023-07-31T01:43:12;99039.78;;;18.30;71.73
67842;BME280;54642;59.126;37.876;2023-07-31T01:45:38;99039.59;;;18.33;71.43
67842;BME280;54642;59.126;37.876;2023-07-31T01:48:03;99023.88;;;18.33;71.17
67842;BME280;54642;59.126;37.876;2023-07-31T01:50:29;99011.78;;;18.31;71.35
67842;BME280;54642;59.126;37.876;2023-07-31T01:52:55;99023.56;;;18.39;71.24
67842;BME280;54642;59.126;37.876;2023-07-31T01:55:21;99017.63;;;18.36;70.64
67842;BME280;54642;59.126;37.876;2023-07-31T01:57:47;99026.63;;;18.47;70.93
67842;BME280;54642;59.126;37.876;2023-07-31T02:00:14;99013.75;;;18.43;70.64
67842;BME280;54642;59.126;37.876;2023-07-31T02:02:40;99020.53;;;18.47;70.64
67842;BME280;54642;59.126;37.876;2023-07-31T02:05:06;99020.81;;;18.58;70.46
67842;BME280;54642;59.126;37.876;2023-07-31T02:07:32;99016.31;;;18.60;70.21
67842;BME280;54642;59.126;37.876;2023-07-31T02:09:57;99019.78;;;18.61;70.30
67842;BME280;54642;59.126;37.876;2023-07-31T02:12:23;99022.91;;;18.67;70.17
67842;BME280;54642;59.126;37.876;2023-07-31T02:14:49;99017.66;;;18.67;70.10
67842;BME280;54642;59.126;37.876;2023-07-31T02:17:15;99026.91;;;18.75;70.17
67842;BME280;54642;59.126;37.876;2023-07-31T02:19:41;99009.88;;;18.66;69.48
67842;BME280;54642;59.126;37.876;2023-07-31T02:22:07;99016.31;;;18.76;69.49
67842;BME280;54642;59.126;37.876;2023-07-31T02:24:32;99030.81;;;18.83;69.78
67842;BME280;54642;59.126;37.876;2023-07-31T02:26:58;99020.78;;;18.74;69.93
67842;BME280;54642;59.126;37.876;2023-07-31T02:29:25;99017.47;;;18.71;70.11
67842;BME280;54642;59.126;37.876;2023-07-31T02:31:51;99028.84;;;18.71;69.97
67842;BME280;54642;59.126;37.876;2023-07-31T02:34:17;99021.22;;;18.66;70.30
67842;BME280;54642;59.126;37.876;2023-07-31T02:36:42;99029.69;;;18.72;70.34
67842;BME280;54642;59.126;37.876;2023-07-31T02:39:08;99031.72;;;18.66;70.53
67842;BME280;54642;59.126;37.876;2023-07-31T02:41:34;99031.03;;;18.63;70.35
67842;BME280;54642;59.126;37.876;2023-07-31T02:44:01;99023.44;;;18.58;70.40
67842;BME280;54642;59.126;37.876;2023-07-31T02:46:27;99008.00;;;18.52;70.49
67842;BME280;54642;59.126;37.876;2023-07-31T02:48:52;99024.34;;;18.57;70.57
67842;BME280;54642;59.126;37.876;2023-07-31T02:51:19;99002.91;;;18.49;71.05
67842;BME280;54642;59.126;37.876;2023-07-31T02:53:47;99001.25;;;18.48;71.03
67842;BME280;54642;59.126;37.876;2023-07-31T02:56:13;99007.09;;;18.53;71.27
67842;BME280;54642;59.126;37.876;2023-07-31T02:58:39;99019.19;;;18.56;70.96
67842;BME280;54642;59.126;37.876;2023-07-31T03:01:05;99018.34;;;18.55;71.34
67842;BME280;54642;59.126;37.876;2023-07-31T03:03:31;99019.19;;;18.56;71.23
67842;BME280;54642;59.126;37.876;2023-07-31T03:05:57;99016.28;;;18.44;71.25
67842;BME280;54642;59.126;37.876;2023-07-31T03:08:23;99026.78;;;18.44;71.05
67842;BME280;54642;59.126;37.876;2023-07-31T03:10:49;98999.69;;;18.28;71.59
67842;BME280;54642;59.126;37.876;2023-07-31T03:13:15;99004.06;;;18.27;71.42
67842;BME280;54642;59.126;37.876;2023-07-31T03:15:44;99015.94;;;18.35;71.27
67842;BME280;54642;59.126;37.876;2023-07-31T03:18:10;99009.16;;;18.31;71.73
67842;BME280;54642;59.126;37.876;2023-07-31T03:20:35;99003.00;;;18.32;71.57
67842;BME280;54642;59.126;37.876;2023-07-31T03:23:01;99015.00;;;18.36;71.70
67842;BME280;54642;59.126;37.876;2023-07-31T03:25:27;98986.81;;;18.23;71.34
67842;BME280;54642;59.126;37.876;2023-07-31T03:27:53;98996.66;;;18.36;71.82
67842;BME280;54642;59.126;37.876;2023-07-31T03:30:19;99006.19;;;18.37;71.68
67842;BME280;54642;59.126;37.876;2023-07-31T03:32:45;99007.66;;;18.42;71.58
67842;BME280;54642;59.126;37.876;2023-07-31T03:35:11;99004.44;;;18.37;71.49
67842;BME280;54642;59.126;37.876;2023-07-31T03:37:37;99016.59;;;18.38;71.77
67842;BME280;54642;59.126;37.876;2023-07-31T03:40:03;99000.38;;;18.32;71.80
67842;BME280;54642;59.126;37.876;2023-07-31T03:42:30;99008.81;;;18.37;71.93
67842;BME280;54642;59.126;37.876;2023-07-31T03:44:56;99006.47;;;18.32;71.57
67842;BME280;54642;59.126;37.876;2023-07-31T03:47:22;98997.75;;;18.32;71.58
67842;BME280;54642;59.126;37.876;2023-07-31T03:49:48;98995.97;;;18.32;71.65
67842;BME280;54642;59.126;37.876;2023-07-31T03:52:14;99000.19;;;18.35;71.81
67842;BME280;54642;59.126;37.876;2023-07-31T03:54:40;99006.13;;;18.38;71.42
67842;BME280;54642;59.126;37.876;2023-07-31T03:57:06;99016.03;;;18.49;71.46
67842;BME280;54642;59.126;37.876;2023-07-31T03:59:32;99014.19;;;18.51;71.34
67842;BME280;54642;59.126;37.876;2023-07-31T04:01:57;99021.88;;;18.54;71.55
67842;BME280;54642;59.126;37.876;2023-07-31T04:04:23;99020.59;;;18.61;71.12
67842;BME280;54642;59.126;37.876;2023-07-31T04:06:49;99007.34;;;18.64;70.87
67842;BME280;54642;59.126;37.876;2023-07-31T04:09:15;98996.16;;;18.61;70.42
67842;BME280;54642;59.126;37.876;2023-07-31T04:11:41;99009.44;;;18.74;70.53
67842;BME280;54642;59.126;37.876;2023-07-31T04:14:06;99005.91;;;18.75;70.14
67842;BME280;54642;59.126;37.876;2023-07-31T04:16:32;99009.13;;;18.80;70.52
67842;BME280;54642;59.126;37.876;2023-07-31T04:18:58;99010.75;;;18.82;70.29
67842;BME280;54642;59.126;37.876;2023-07-31T04:21:24;99014.03;;;18.86;70.07
67842;BME280;54642;59.126;37.876;2023-07-31T04:23:50;99010.66;;;18.84;70.42
67842;BME280;54642;59.126;37.876;2023-07-31T04:26:16;99019.91;;;18.91;69.95
67842;BME280;54642;59.126;37.876;2023-07-31T04:28:41;99025.72;;;18.96;69.88
67842;BME280;54642;59.126;37.876;2023-07-31T04:31:07;99029.94;;;18.99;69.85
67842;BME280;54642;59.126;37.876;2023-07-31T04:33:34;99023.78;;;19.00;69.52
67842;BME280;54642;59.126;37.876;2023-07-31T04:36:00;99021.25;;;18.98;69.38
67842;BME280;54642;59.126;37.876;2023-07-31T04:38:26;99020.47;;;18.96;69.37
67842;BME280;54642;59.126;37.876;2023-07-31T04:40:52;99024.63;;;19.00;69.74
67842;BME280;54642;59.126;37.876;2023-07-31T04:43:17;99011.78;;;18.96;70.08
67842;BME280;54642;59.126;37.876;2023-07-31T04:45:46;99009.97;;;18.96;69.67
67842;BME280;54642;59.126;37.876;2023-07-31T04:48:13;99006.69;;;18.93;69.47
67842;BME280;54642;59.126;37.876;2023-07-31T04:50:39;99027.69;;;19.09;69.65
67842;BME280;54642;59.126;37.876;2023-07-31T04:53:05;99025.88;;;19.09;69.72
67842;BME280;54642;59.126;37.876;2023-07-31T04:55:31;99026.56;;;19.13;69.52
67842;BME280;54642;59.126;37.876;2023-07-31T04:57:58;99029.03;;;19.16;69.70
67842;BME280;54642;59.126;37.876;2023-07-31T05:00:24;99013.59;;;19.10;69.27
67842;BME280;54642;59.126;37.876;2023-07-31T05:02:50;99024.34;;;19.21;69.59
67842;BME280;54642;59.126;37.876;2023-07-31T05:05:16;99026.69;;;19.26;69.05
67842;BME280;54642;59.126;37.876;2023-07-31T05:07:42;99006.72;;;19.23;69.27
67842;BME280;54642;59.126;37.876;2023-07-31T05:10:08;99027.03;;;19.35;69.26
67842;BME280;54642;59.126;37.876;2023-07-31T05:12:34;99014.81;;;19.34;68.92
67842;BME280;54642;59.126;37.876;2023-07-31T05:15:03;99021.78;;;19.35;69.19
67842;BME280;54642;59.126;37.876;2023-07-31T05:17:29;99009.94;;;19.28;69.13
67842;BME280;54642;59.126;37.876;2023-07-31T05:19:55;99020.00;;;19.36;69.12
67842;BME280;54642;59.126;37.876;2023-07-31T05:22:21;99000.50;;;19.24;69.54
67842;BME280;54642;59.126;37.876;2023-07-31T05:24:47;99010.50;;;19.33;69.61
67842;BME280;54642;59.126;37.876;2023-07-31T05:27:13;99015.56;;;19.36;69.61
67842;BME280;54642;59.126;37.876;2023-07-31T05:29:40;99013.63;;;19.40;69.14
67842;BME280;54642;59.126;37.876;2023-07-31T05:32:06;99011.53;;;19.31;69.14
67842;BME280;54642;59.126;37.876;2023-07-31T05:34:32;99011.03;;;19.24;69.19
67842;BME280;54642;59.126;37.876;2023-07-31T05:36:58;99014.59;;;19.23;68.94
67842;BME280;54642;59.126;37.876;2023-07-31T05:39:24;99012.22;;;19.18;68.61
67842;BME280;54642;59.126;37.876;2023-07-31T05:41:50;99041.84;;;19.36;68.71
67842;BME280;54642;59.126;37.876;2023-07-31T05:44:16;99026.38;;;19.32;69.27
67842;BME280;54642;59.126;37.876;2023-07-31T05:46:41;99034.03;;;19.35;68.63
67842;BME280;54642;59.126;37.876;2023-07-31T05:49:07;99030.59;;;19.34;68.71
67842;BME280;54642;59.126;37.876;2023-07-31T05:51:33;99044.97;;;19.43;68.87
67842;BME280;54642;59.126;37.876;2023-07-31T05:53:59;99027.88;;;19.36;69.16
67842;BME280;54642;59.126;37.876;2023-07-31T05:56:25;99019.16;;;19.35;68.72
67842;BME280;54642;59.126;37.876;2023-07-31T05:58:52;99024.03;;;19.41;68.98
67842;BME280;54642;59.126;37.876;2023-07-31T06:01:18;99050.66;;;19.51;68.88
67842;BME280;54642;59.126;37.876;2023-07-31T06:03:44;99023.19;;;19.41;68.46
67842;BME280;54642;59.126;37.876;2023-07-31T06:06:11;99032.50;;;19.47;68.45
67842;BME280;54642;59.126;37.876;2023-07-31T06:08:37;99023.13;;;19.42;68.32
67842;BME280;54642;59.126;37.876;2023-07-31T06:11:02;99028.16;;;19.46;67.79
67842;BME280;54642;59.126;37.876;2023-07-31T06:13:29;99046.22;;;19.52;67.83
67842;BME280;54642;59.126;37.876;2023-07-31T06:15:54;99047.22;;;19.49;68.11
67842;BME280;54642;59.126;37.876;2023-07-31T06:18:20;99055.97;;;19.50;68.07
67842;BME280;54642;59.126;37.876;2023-07-31T06:20:46;99027.78;;;19.37;68.04
67842;BME280;54642;59.126;37.876;2023-07-31T06:23:13;99052.50;;;19.49;68.08
67842;BME280;54642;59.126;37.876;2023-07-31T06:25:49;99044.88;;;19.45;67.96
67842;BME280;54642;59.126;37.876;2023-07-31T06:28:15;99055.22;;;19.48;67.64
67842;BME280;54642;59.126;37.876;2023-07-31T06:30:41;99045.66;;;19.47;67.71
67842;BME280;54642;59.126;37.876;2023-07-31T06:33:06;99027.69;;;19.39;67.65
67842;BME280;54642;59.126;37.876;2023-07-31T06:35:32;99025.63;;;19.44;67.62
67842;BME280;54642;59.126;37.876;2023-07-31T06:37:58;99019.63;;;19.42;67.63
67842;BME280;54642;59.126;37.876;2023-07-31T06:40:24;99044.84;;;19.60;67.53
67842;BME280;54642;59.126;37.876;2023-07-31T06:42:50;99037.72;;;19.62;67.16
67842;BME280;54642;59.126;37.876;2023-07-31T06:45:15;99035.84;;;19.65;67.64
67842;BME280;54642;59.126;37.876;2023-07-31T06:47:41;99043.97;;;19.76;67.74
67842;BME280;54642;59.126;37.876;2023-07-31T06:50:08;99046.50;;;19.77;67.55
67842;BME280;54642;59.126;37.876;2023-07-31T06:52:33;99041.72;;;19.84;67.79
67842;BME280;54642;59.126;37.876;2023-07-31T06:55:16;99041.84;;;19.97;67.76
67842;BME280;54642;59.126;37.876;2023-07-31T06:57:46;99045.03;;;20.02;67.35
67842;BME280;54642;59.126;37.876;2023-07-31T07:00:12;99047.28;;;20.08;67.63
67842;BME280;54642;59.126;37.876;2023-07-31T07:02:39;99042.91;;;20.09;67.60
67842;BME280;54642;59.126;37.876;2023-07-31T07:05:06;99030.00;;;20.04;67.08
67842;BME280;54642;59.126;37.876;2023-07-31T07:07:32;99047.94;;;20.12;67.15
67842;BME280;54642;59.126;37.876;2023-07-31T07:09:58;99053.88;;;20.15;66.75
67842;BME280;54642;59.126;37.876;2023-07-31T07:12:30;99051.44;;;20.12;66.91
67842;BME280;54642;59.126;37.876;2023-07-31T07:14:56;99056.31;;;20.18;66.80
67842;BME280;54642;59.126;37.876;2023-07-31T07:17:23;99054.66;;;20.17;66.66
67842;BME280;54642;59.126;37.876;2023-07-31T07:19:49;99064.22;;;20.18;66.23
67842;BME280;54642;59.126;37.876;2023-07-31T07:22:15;99065.06;;;20.19;66.40
67842;BME280;54642;59.126;37.876;2023-07-31T07:24:41;99046.94;;;20.14;65.91
67842;BME280;54642;59.126;37.876;2023-07-31T07:27:07;99060.38;;;20.24;65.98
67842;BME280;54642;59.126;37.876;2023-07-31T07:29:37;99057.72;;;20.24;65.98
67842;BME280;54642;59.126;37.876;2023-07-31T07:32:04;99058.47;;;20.26;65.67
67842;BME280;54642;59.126;37.876;2023-07-31T07:34:30;99056.50;;;20.30;65.62
67842;BME280;54642;59.126;37.876;2023-07-31T07:36:56;99068.47;;;20.35;65.51
67842;BME280;54642;59.126;37.876;2023-07-31T07:39:21;99056.25;;;20.34;65.11
67842;BME280;54642;59.126;37.876;2023-07-31T07:41:48;99061.97;;;20.41;65.45
67842;BME280;54642;59.126;37.876;2023-07-31T07:44:14;99061.34;;;20.66;65.05
67842;BME280;54642;59.126;37.876;2023-07-31T07:46:40;99062.47;;;20.77;64.51
67842;BME280;54642;59.126;37.876;2023-07-31T07:49:06;99069.47;;;20.90;64.51
67842;BME280;54642;59.126;37.876;2023-07-31T07:51:32;99059.31;;;20.84;64.47
67842;BME280;54642;59.126;37.876;2023-07-31T07:54:01;99076.16;;;20.82;64.30
67842;BME280;54642;59.126;37.876;2023-07-31T07:56:27;99050.16;;;20.63;64.38
67842;BME280;54642;59.126;37.876;2023-07-31T07:58:54;99063.22;;;20.64;64.16
67842;BME280;54642;59.126;37.876;2023-07-31T08:01:20;99075.34;;;20.67;64.37
67842;BME280;54642;59.126;37.876;2023-07-31T08:03:49;99079.66;;;20.68;64.57
67842;BME280;54642;59.126;37.876;2023-07-31T08:06:15;99065.47;;;20.70;64.51
67842;BME280;54642;59.126;37.876;2023-07-31T08:08:42;99067.13;;;20.86;63.92
67842;BME280;54642;59.126;37.876;2023-07-31T08:11:08;99069.47;;;20.90;64.22
67842;BME280;54642;59.126;37.876;2023-07-31T08:13:34;99055.72;;;20.85;63.87
67842;BME280;54642;59.126;37.876;2023-07-31T08:16:03;99053.22;;;20.84;64.36
67842;BME280;54642;59.126;37.876;2023-07-31T08:18:30;99061.28;;;20.95;63.81
67842;BME280;54642;59.126;37.876;2023-07-31T08:20:56;99072.28;;;21.02;63.75
67842;BME280;54642;59.126;37.876;2023-07-31T08:23:22;99075.94;;;20.99;63.72
67842;BME280;54642;59.126;37.876;2023-07-31T08:25:48;99081.50;;;20.94;63.96
67842;BME280;54642;59.126;37.876;2023-07-31T08:28:16;99087.91;;;20.90;64.04
67842;BME280;54642;59.126;37.876;2023-07-31T08:30:42;99050.50;;;20.71;64.21
67842;BME280;54642;59.126;37.876;2023-07-31T08:33:08;99094.13;;;20.89;64.00
67842;BME280;54642;59.126;37.876;2023-07-31T08:35:34;99088.94;;;20.88;63.97
67842;BME280;54642;59.126;37.876;2023-07-31T08:38:00;99082.06;;;20.85;64.09
67842;BME280;54642;59.126;37.876;2023-07-31T08:40:26;99084.16;;;20.80;64.04
67842;BME280;54642;59.126;37.876;2023-07-31T08:42:55;99077.94;;;20.81;63.73
67842;BME280;54642;59.126;37.876;2023-07-31T08:45:28;99067.22;;;20.84;64.28
67842;BME280;54642;59.126;37.876;2023-07-31T08:47:55;99078.66;;;20.98;63.82
67842;BME280;54642;59.126;37.876;2023-07-31T08:50:22;99083.66;;;21.02;63.86
67842;BME280;54642;59.126;37.876;2023-07-31T08:52:50;99070.38;;;21.04;63.93
67842;BME280;54642;59.126;37.876;2023-07-31T08:55:16;99083.78;;;21.13;63.56
67842;BME280;54642;59.126;37.876;2023-07-31T08:57:42;99068.41;;;21.07;63.23
67842;BME280;54642;59.126;37.876;2023-07-31T09:00:10;99083.97;;;21.25;62.87
67842;BME280;54642;59.126;37.876;2023-07-31T09:02:50;99082.19;;;21.25;62.63
67842;BME280;54642;59.126;37.876;2023-07-31T09:05:17;99077.75;;;21.26;62.72
67842;BME280;54642;59.126;37.876;2023-07-31T09:07:45;99086.94;;;21.33;63.22
67842;BME280;54642;59.126;37.876;2023-07-31T09:10:12;99071.22;;;21.31;63.21
67842;BME280;54642;59.126;37.876;2023-07-31T09:12:39;99038.91;;;21.15;63.04
67842;BME280;54642;59.126;37.876;2023-07-31T09:15:06;99080.22;;;21.42;63.30
67842;BME280;54642;59.126;37.876;2023-07-31T09:17:33;99074.97;;;21.42;63.22
67842;BME280;54642;59.126;37.876;2023-07-31T09:20:21;99087.06;;;21.44;62.95
67842;BME280;54642;59.126;37.876;2023-07-31T09:22:48;99070.63;;;21.41;62.30
67842;BME280;54642;59.126;37.876;2023-07-31T09:27:56;99084.13;;;21.63;62.42
67842;BME280;54642;59.126;37.876;2023-07-31T09:30:23;99084.47;;;21.72;61.41
67842;BME280;54642;59.126;37.876;2023-07-31T09:32:50;99066.81;;;21.59;61.08
67842;BME280;54642;59.126;37.876;2023-07-31T09:35:30;99071.00;;;21.49;61.81
67842;BME280;54642;59.126;37.876;2023-07-31T09:37:58;99071.59;;;21.40;62.05
67842;BME280;54642;59.126;37.876;2023-07-31T09:40:33;99084.00;;;21.38;62.30
67842;BME280;54642;59.126;37.876;2023-07-31T09:43:01;99087.03;;;21.31;61.90
67842;BME280;54642;59.126;37.876;2023-07-31T09:45:27;99086.28;;;21.29;61.89
67842;BME280;54642;59.126;37.876;2023-07-31T09:47:55;99096.84;;;21.29;61.64
67842;BME280;54642;59.126;37.876;2023-07-31T09:50:22;99090.06;;;21.25;61.16
67842;BME280;54642;59.126;37.876;2023-07-31T09:52:49;99087.81;;;21.19;61.61
67842;BME280;54642;59.126;37.876;2023-07-31T09:55:16;99093.22;;;21.18;61.50
67842;BME280;54642;59.126;37.876;2023-07-31T09:57:45;99090.69;;;21.16;61.37
67842;BME280;54642;59.126;37.876;2023-07-31T10:00:13;99078.19;;;21.05;61.47
67842;BME280;54642;59.126;37.876;2023-07-31T10:02:41;99090.88;;;21.13;61.62
67842;BME280;54642;59.126;37.876;2023-07-31T10:05:07;99082.41;;;21.08;61.60
67842;BME280;54642;59.126;37.876;2023-07-31T10:07:38;99095.94;;;21.16;61.31
67842;BME280;54642;59.126;37.876;2023-07-31T10:10:08;99092.75;;;21.11;61.77
67842;BME280;54642;59.126;37.876;2023-07-31T10:12:37;99087.31;;;21.00;61.77
67842;BME280;54642;59.126;37.876;2023-07-31T10:15:04;99106.13;;;21.08;61.65
67842;BME280;54642;59.126;37.876;2023-07-31T10:17:31;99105.38;;;21.06;61.91
67842;BME280;54642;59.126;37.876;2023-07-31T10:19:58;99086.56;;;20.98;61.81
67842;BME280;54642;59.126;37.876;2023-07-31T10:22:27;99098.63;;;21.02;61.96
67842;BME280;54642;59.126;37.876;2023-07-31T10:24:55;99098.13;;;21.09;62.43
67842;BME280;54642;59.126;37.876;2023-07-31T10:27:25;99104.69;;;21.17;61.89
67842;BME280;54642;59.126;37.876;2023-07-31T10:29:53;99111.53;;;21.19;61.86
67842;BME280;54642;59.126;37.876;2023-07-31T10:32:20;99100.16;;;21.19;61.46
67842;BME280;54642;59.126;37.876;2023-07-31T10:34:48;99119.63;;;21.30;61.31
67842;BME280;54642;59.126;37.876;2023-07-31T10:37:24;99115.41;;;21.41;60.84
67842;BME280;54642;59.126;37.876;2023-07-31T10:39:59;99123.06;;;21.45;60.84
67842;BME280;54642;59.126;37.876;2023-07-31T10:42:44;99117.84;;;21.58;60.87
67842;BME280;54642;59.126;37.876;2023-07-31T10:45:10;99120.22;;;21.76;60.47
67842;BME280;54642;59.126;37.876;2023-07-31T10:47:38;99116.25;;;21.96;60.30
67842;BME280;54642;59.126;37.876;2023-07-31T10:50:20;99118.41;;;22.16;60.25
67842;BME280;54642;59.126;37.876;2023-07-31T10:52:51;99104.03;;;22.20;60.17
67842;BME280;54642;59.126;37.876;2023-07-31T10:55:35;99112.00;;;22.33;59.61
67842;BME280;54642;59.126;37.876;2023-07-31T10:58:13;99117.91;;;22.37;59.46
67842;BME280;54642;59.126;37.876;2023-07-31T11:00:42;99119.16;;;22.31;59.83
67842;BME280;54642;59.126;37.876;2023-07-31T11:03:10;99114.19;;;22.26;59.61
67842;BME280;54642;59.126;37.876;2023-07-31T11:08:14;99106.25;;;22.14;59.65
67842;BME280;54642;59.126;37.876;2023-07-31T11:10:42;99115.22;;;22.11;60.18
67842;BME280;54642;59.126;37.876;2023-07-31T11:13:08;99116.69;;;22.02;59.94
67842;BME280;54642;59.126;37.876;2023-07-31T11:15:34;99101.78;;;21.88;59.84
67842;BME280;54642;59.126;37.876;2023-07-31T11:18:03;99117.81;;;21.85;60.19
67842;BME280;54642;59.126;37.876;2023-07-31T11:20:31;99121.59;;;21.81;60.40
67842;BME280;54642;59.126;37.876;2023-07-31T11:23:17;99123.59;;;21.78;60.16
67842;BME280;54642;59.126;37.876;2023-07-31T11:25:43;99122.97;;;21.74;60.22
67842;BME280;54642;59.126;37.876;2023-07-31T11:28:11;99121.28;;;21.73;60.08
67842;BME280;54642;59.126;37.876;2023-07-31T11:30:38;99118.75;;;21.72;60.77
67842;BME280;54642;59.126;37.876;2023-07-31T11:33:06;99117.22;;;21.67;60.88
67842;BME280;54642;59.126;37.876;2023-07-31T11:35:34;99114.72;;;21.66;61.04
67842;BME280;54642;59.126;37.876;2023-07-31T11:38:00;99115.75;;;21.63;60.37
67842;BME280;54642;59.126;37.876;2023-07-31T11:40:27;99107.84;;;21.63;60.77
67842;BME280;54642;59.126;37.876;2023-07-31T11:43:04;99098.34;;;21.61;60.80
67842;BME280;54642;59.126;37.876;2023-07-31T11:45:30;99107.09;;;21.61;61.11
67842;BME280;54642;59.126;37.876;2023-07-31T11:47:56;99101.72;;;21.63;60.79
67842;BME280;54642;59.126;37.876;2023-07-31T11:50:26;99118.75;;;21.72;60.62
67842;BME280;54642;59.126;37.876;2023-07-31T11:52:57;99096.75;;;21.58;60.52
67842;BME280;54642;59.126;37.876;2023-07-31T11:55:25;99110.28;;;21.66;61.33
67842;BME280;54642;59.126;37.876;2023-07-31T11:57:52;99122.31;;;21.70;62.04
67842;BME280;54642;59.126;37.876;2023-07-31T12:00:19;99118.09;;;21.68;61.94
67842;BME280;54642;59.126;37.876;2023-07-31T12:02:45;99107.50;;;21.55;62.44
67842;BME280;54642;59.126;37.876;2023-07-31T12:05:13;99102.22;;;21.55;62.34
67842;BME280;54642;59.126;37.876;2023-07-31T12:07:57;99129.94;;;21.75;62.74
67842;BME280;54642;59.126;37.876;2023-07-31T12:10:27;99127.06;;;21.78;62.63
67842;BME280;54642;59.126;37.876;2023-07-31T12:13:08;99129.97;;;21.88;62.20
67842;BME280;54642;59.126;37.876;2023-07-31T12:15:43;99121.63;;;21.94;62.29
67842;BME280;54642;59.126;37.876;2023-07-31T12:18:12;99106.78;;;22.06;62.00
67842;BME280;54642;59.126;37.876;2023-07-31T12:20:43;99114.50;;;22.22;61.58
67842;BME280;54642;59.126;37.876;2023-07-31T12:23:19;99119.25;;;22.42;61.87
67842;BME280;54642;59.126;37.876;2023-07-31T12:26:14;99115.03;;;22.53;61.74
67842;BME280;54642;59.126;37.876;2023-07-31T12:28:44;99094.03;;;22.38;61.67
67842;BME280;54642;59.126;37.876;2023-07-31T12:31:15;99096.06;;;22.35;62.05
67842;BME280;54642;59.126;37.876;2023-07-31T12:33:46;99107.25;;;22.38;62.35
67842;BME280;54642;59.126;37.876;2023-07-31T12:36:18;99106.06;;;22.42;61.84
67842;BME280;54642;59.126;37.876;2023-07-31T12:38:44;99093.94;;;22.27;61.70
67842;BME280;54642;59.126;37.876;2023-07-31T12:41:11;99106.81;;;22.32;62.02
67842;BME280;54642;59.126;37.876;2023-07-31T12:43:40;99116.72;;;22.41;62.25
67842;BME280;54642;59.126;37.876;2023-07-31T12:46:07;99111.06;;;22.34;62.00
67842;BME280;54642;59.126;37.876;2023-07-31T12:48:34;99107.53;;;22.34;61.90
67842;BME280;54642;59.126;37.876;2023-07-31T12:51:00;99105.13;;;22.31;61.95
67842;BME280;54642;59.126;37.876;2023-07-31T12:53:27;99117.59;;;22.41;61.76
67842;BME280;54642;59.126;37.876;2023-07-31T12:55:53;99109.16;;;22.36;62.03
67842;BME280;54642;59.126;37.876;2023-07-31T12:58:19;99127.91;;;22.44;61.35
67842;BME280;54642;59.126;37.876;2023-07-31T13:00:45;99125.28;;;22.44;60.51